Time;durP1;ratioP1;P1;durP2;ratioP2;P2;SDS_P1;SDS_P2;PMS_P1;PMS_P2;Temp;Humidity;BMP_temperature;BMP_pressure;BME280_temperature;BME280_humidity;BME280_pressure;Samples;Min_cycle;Max_cycle;Signal;HPM_P1;HPM_P2
2022/07/05 00:00:08;;;;;;;11.55;7.95;;;;;;;16.34;96.47;96344.34;2016316;29;20094;-65
2022/07/05 00:01:17;;;;;;;11.82;7.95;;;;;;;16.35;96.37;96351.25;2033915;29;20129;-64
2022/07/05 00:02:18;;;;;;;8.60;7.72;;;;;;;16.41;96.39;96344.78;2032213;29;20044;-65
2022/07/05 00:03:19;;;;;;;10.60;7.50;;;;;;;16.43;96.59;96343.72;2025104;29;20051;-64
2022/07/05 00:04:21;;;;;;;9.38;7.80;;;;;;;16.38;96.27;96347.59;2016641;29;20060;-65
2022/07/05 00:05:22;;;;;;;10.85;8.00;;;;;;;16.35;96.32;96347.81;2024984;29;20557;-64
2022/07/05 00:06:23;;;;;;;9.23;8.20;;;;;;;16.35;96.53;96345.19;2024918;29;20040;-65
2022/07/05 00:07:24;;;;;;;12.07;8.50;;;;;;;16.31;97.20;96355.03;2024837;29;20049;-66
2022/07/05 00:08:26;;;;;;;11.60;8.30;;;;;;;16.34;97.28;96356.63;2031862;29;20052;-64
2022/07/05 00:09:27;;;;;;;10.15;8.70;;;;;;;16.31;98.01;96350.63;2024650;29;20048;-64
2022/07/05 00:10:28;;;;;;;12.13;10.20;;;;;;;16.30;98.01;96353.31;2032349;29;20044;-64
2022/07/05 00:11:29;;;;;;;11.88;9.45;;;;;;;16.33;97.86;96355.75;2032486;29;20522;-64
2022/07/05 00:12:32;;;;;;;10.65;8.85;;;;;;;16.38;97.27;96351.03;2032379;29;20052;-66
2022/07/05 00:13:33;;;;;;;10.23;9.00;;;;;;;16.46;97.95;96348.78;2040169;29;20047;-66
2022/07/05 00:14:34;;;;;;;12.05;9.50;;;;;;;16.48;97.55;96346.06;2047398;28;20054;-65
2022/07/05 00:15:35;;;;;;;12.38;9.35;;;;;;;16.47;97.92;96345.22;2039663;29;20040;-65
2022/07/05 00:16:37;;;;;;;11.07;8.85;;;;;;;16.44;98.10;96339.31;2024413;29;20531;-64
2022/07/05 00:17:38;;;;;;;14.00;10.38;;;;;;;16.40;97.95;96336.06;2017218;29;20056;-63
2022/07/05 00:18:39;;;;;;;12.20;9.77;;;;;;;16.40;97.97;96337.84;2032511;29;20062;-65
2022/07/05 00:19:40;;;;;;;11.93;10.65;;;;;;;16.44;98.42;96344.56;2039778;29;20058;-64
2022/07/05 00:20:42;;;;;;;13.65;10.57;;;;;;;16.43;98.53;96337.66;2040837;29;20052;-64
2022/07/05 00:21:43;;;;;;;12.00;9.43;;;;;;;16.46;98.26;96338.28;2017705;29;20515;-65
2022/07/05 00:22:44;;;;;;;11.80;9.73;;;;;;;16.47;97.96;96344.41;2016809;29;20507;-65
2022/07/05 00:23:46;;;;;;;11.38;10.18;;;;;;;16.44;98.54;96340.19;2024450;29;20044;-66
2022/07/05 00:24:47;;;;;;;10.93;9.68;;;;;;;16.50;97.48;96333.69;2032405;29;20059;-64
2022/07/05 00:25:48;;;;;;;10.50;9.40;;;;;;;16.45;97.77;96341.84;2032771;29;20055;-64
2022/07/05 00:26:50;;;;;;;11.25;9.27;;;;;;;16.40;98.52;96330.00;2032193;29;20055;-65
2022/07/05 00:27:53;;;;;;;11.40;10.20;;;;;;;16.39;98.34;96331.78;2040245;29;20399;-65
2022/07/05 00:28:54;;;;;;;16.70;11.55;;;;;;;16.41;98.81;96335.16;2039832;29;20051;-65
2022/07/05 00:29:56;;;;;;;13.57;10.45;;;;;;;16.41;98.97;96332.53;2032196;29;20833;-65
2022/07/05 00:30:57;;;;;;;12.52;10.90;;;;;;;16.38;99.04;96334.50;2024772;29;20052;-64
2022/07/05 00:31:59;;;;;;;12.07;10.57;;;;;;;16.36;98.88;96334.59;2025151;29;20055;-65
2022/07/05 00:33:00;;;;;;;12.45;10.77;;;;;;;16.39;98.39;96325.72;2017803;29;20049;-64
2022/07/05 00:34:01;;;;;;;18.65;10.65;;;;;;;16.36;98.99;96323.25;2024819;29;20447;-67
2022/07/05 00:35:04;;;;;;;12.23;10.90;;;;;;;16.33;99.38;96326.91;2032743;29;20537;-65
2022/07/05 00:36:06;;;;;;;14.45;10.43;;;;;;;16.25;99.17;96337.06;2040131;29;20063;-66
2022/07/05 00:37:07;;;;;;;13.27;9.10;;;;;;;16.26;98.70;96330.91;2039969;29;20043;-65
2022/07/05 00:38:08;;;;;;;10.75;8.32;;;;;;;16.30;98.81;96334.97;2032193;29;20060;-65
2022/07/05 00:39:10;;;;;;;11.70;10.18;;;;;;;16.30;98.68;96332.38;2032405;29;20055;-66
2022/07/05 00:40:11;;;;;;;11.80;8.98;;;;;;;16.27;98.56;96335.19;2024757;29;20108;-64
2022/07/05 00:41:12;;;;;;;12.45;8.52;;;;;;;16.27;98.12;96333.41;2016989;29;20566;-65
2022/07/05 00:42:13;;;;;;;12.30;9.68;;;;;;;16.29;98.30;96335.94;2016715;29;20052;-65
2022/07/05 00:43:15;;;;;;;13.65;10.38;;;;;;;16.28;97.63;96336.88;2017297;29;20048;-65
2022/07/05 00:44:16;;;;;;;14.07;9.70;;;;;;;16.28;97.90;96335.09;2024549;29;20543;-65
2022/07/05 00:45:17;;;;;;;14.23;10.35;;;;;;;16.29;97.96;96339.38;2039768;29;20048;-64
2022/07/05 00:46:18;;;;;;;13.10;8.75;;;;;;;16.29;97.69;96334.16;2039979;29;20081;-65
2022/07/05 00:47:20;;;;;;;13.75;9.48;;;;;;;16.30;97.62;96341.09;2039863;29;20054;-65
2022/07/05 00:48:21;;;;;;;16.30;10.98;;;;;;;16.31;98.36;96340.13;2031503;29;20048;-64
2022/07/05 00:49:23;;;;;;;16.08;9.82;;;;;;;16.28;98.12;96337.72;2032240;29;20059;-65
2022/07/05 00:50:24;;;;;;;16.02;9.85;;;;;;;16.26;97.77;96344.00;2031521;29;20495;-64
2022/07/05 00:51:26;;;;;;;16.80;10.88;;;;;;;16.28;98.85;96344.75;2031830;29;20557;-65
2022/07/05 00:52:27;;;;;;;13.63;8.95;;;;;;;16.26;98.08;96344.00;2039832;29;20498;-65
2022/07/05 00:53:28;;;;;;;14.40;10.15;;;;;;;16.27;97.74;96348.28;2025199;29;20053;-67
2022/07/05 00:54:32;;;;;;;13.40;10.50;;;;;;;16.30;97.92;96348.09;2016697;29;20047;-64
2022/07/05 00:55:33;;;;;;;15.70;10.27;;;;;;;16.28;98.28;96344.75;2017603;29;20060;-65
2022/07/05 00:56:34;;;;;;;12.95;9.35;;;;;;;16.29;98.09;96346.41;2024656;29;20430;-64
2022/07/05 00:57:36;;;;;;;11.95;9.48;;;;;;;16.28;98.27;96350.00;2024644;29;20048;-64
2022/07/05 00:58:37;;;;;;;13.40;10.63;;;;;;;16.28;98.14;96350.00;2016829;29;20041;-63
2022/07/05 00:59:38;;;;;;;17.92;10.05;;;;;;;16.31;98.66;96347.16;2031830;29;20538;-64
2022/07/05 01:00:40;;;;;;;14.95;10.50;;;;;;;16.32;98.11;96351.47;2040067;29;20055;-65
2022/07/05 01:01:41;;;;;;;13.40;9.40;;;;;;;16.32;99.12;96348.84;2032202;29;20055;-66
2022/07/05 01:02:42;;;;;;;11.45;8.50;;;;;;;16.32;97.90;96347.06;2024266;29;20052;-64
2022/07/05 01:03:44;;;;;;;12.25;9.88;;;;;;;16.29;98.07;96344.63;2025068;29;20064;-65
2022/07/05 01:04:47;;;;;;;15.32;9.38;;;;;;;16.34;98.57;96346.13;2031741;29;20063;-66
2022/07/05 01:05:48;;;;;;;16.45;8.05;;;;;;;16.35;98.19;96329.44;2024730;29;20060;-65
2022/07/05 01:06:50;;;;;;;14.98;9.32;;;;;;;16.36;98.26;96342.47;2016829;29;20135;-65
2022/07/05 01:07:51;;;;;;;16.42;7.90;;;;;;;16.36;98.25;96337.22;2024227;29;20049;-64
2022/07/05 01:08:53;;;;;;;11.50;9.05;;;;;;;16.34;98.43;96341.72;2039429;29;20066;-64
2022/07/05 01:09:54;;;;;;;16.25;8.88;;;;;;;16.32;98.85;96346.22;2032282;29;20055;-62
2022/07/05 01:10:55;;;;;;;10.70;8.23;;;;;;;16.30;97.62;96342.84;2017283;29;20053;-65
2022/07/05 01:11:57;;;;;;;13.25;8.52;;;;;;;16.28;97.81;96342.13;2002876;29;20054;-64
2022/07/05 01:12:58;;;;;;;12.88;8.55;;;;;;;16.28;97.98;96342.13;2025788;29;20419;-64
2022/07/05 01:14:00;;;;;;;14.35;8.23;;;;;;;16.32;98.72;96339.19;2041534;29;20051;-65
2022/07/05 01:15:01;;;;;;;17.85;8.93;;;;;;;16.29;98.63;96339.38;2026417;29;20048;-64
2022/07/05 01:16:03;;;;;;;16.83;8.38;;;;;;;16.27;98.91;96345.66;2041615;29;20054;-64
2022/07/05 01:17:04;;;;;;;16.17;9.15;;;;;;;16.26;97.85;96344.84;2033476;29;20056;-65
2022/07/05 01:18:05;;;;;;;15.45;9.35;;;;;;;16.23;98.55;96334.56;2026155;29;20059;-64
2022/07/05 01:19:07;;;;;;;13.50;8.98;;;;;;;16.24;98.43;96338.84;2041262;29;20533;-65
2022/07/05 01:20:08;;;;;;;12.73;9.63;;;;;;;16.25;98.99;96340.53;2034128;29;20470;-65
2022/07/05 01:21:10;;;;;;;16.77;9.80;;;;;;;16.30;99.54;96340.22;2010637;29;20054;-65
2022/07/05 01:22:16;;;;;;;17.23;10.20;;;;;;;16.27;98.87;96332.56;2011236;29;20060;-65
2022/07/05 01:23:18;;;;;;;16.27;9.15;;;;;;;16.29;98.80;96339.38;2027458;29;20044;-65
2022/07/05 01:24:20;;;;;;;15.05;9.90;;;;;;;16.29;99.49;96335.94;2025946;29;20056;-64
2022/07/05 01:25:23;;;;;;;18.08;9.85;;;;;;;16.32;98.77;96330.50;2033697;29;20446;-65
2022/07/05 01:26:24;;;;;;;17.85;9.25;;;;;;;16.33;98.93;96337.41;2041110;29;20043;-66
2022/07/05 01:27:25;;;;;;;12.73;9.52;;;;;;;16.34;98.73;96331.25;2033542;29;20043;-64
2022/07/05 01:28:27;;;;;;;20.77;9.93;;;;;;;16.35;98.96;96324.22;2033402;29;20130;-64
2022/07/05 01:29:29;;;;;;;15.73;10.70;;;;;;;16.26;99.65;96333.50;2025520;29;20048;-64
2022/07/05 01:30:30;;;;;;;15.90;10.65;;;;;;;16.24;98.91;96325.75;2025736;29;20050;-65
2022/07/05 01:31:32;;;;;;;16.95;10.32;;;;;;;16.29;99.41;96325.44;2025947;29;20052;-64
2022/07/05 01:32:33;;;;;;;18.50;10.18;;;;;;;16.25;99.54;96330.06;2033746;29;20059;-64
2022/07/05 01:33:34;;;;;;;17.42;11.57;;;;;;;16.24;99.37;96332.78;2041022;29;20051;-65
2022/07/05 01:34:38;;;;;;;16.13;11.18;;;;;;;16.21;99.26;96331.19;2026203;29;20051;-65
2022/07/05 01:35:39;;;;;;;13.27;10.80;;;;;;;16.20;99.30;96332.13;2033730;29;20047;-62
2022/07/05 01:36:40;;;;;;;17.55;10.98;;;;;;;16.07;99.97;96318.13;2042263;29;20397;-64
2022/07/05 01:37:42;;;;;;;17.63;10.45;;;;;;;16.19;100.00;96338.28;2033367;29;20051;-64
2022/07/05 01:38:43;;;;;;;19.98;10.93;;;;;;;16.19;99.63;96332.22;2018148;29;20464;-64
2022/07/05 01:39:45;;;;;;;22.20;11.70;;;;;;;16.17;100.00;96332.34;2025788;29;20060;-64
2022/07/05 01:40:50;;;;;;;20.45;12.43;;;;;;;16.13;100.00;96327.38;2041160;29;20058;-65
2022/07/05 01:41:51;;;;;;;17.63;11.93;;;;;;;16.17;100.00;96331.47;2040839;29;20055;-65
2022/07/05 01:42:53;;;;;;;19.35;12.52;;;;;;;16.07;100.00;96328.63;2033145;29;20059;-65
2022/07/05 01:43:55;;;;;;;20.98;12.98;;;;;;;16.03;100.00;96329.75;2033505;29;20056;-65
2022/07/05 01:44:56;;;;;;;20.05;13.88;;;;;;;15.99;100.00;96328.25;2033526;29;20055;-64
2022/07/05 01:45:58;;;;;;;19.52;13.30;;;;;;;15.94;100.00;96331.16;2033258;29;20048;-64
2022/07/05 01:47:03;;;;;;;17.88;12.35;;;;;;;15.93;100.00;96326.88;2033418;29;20514;-66
2022/07/05 01:48:07;;;;;;;16.42;13.43;;;;;;;15.94;100.00;96331.16;2033827;29;20055;-64
2022/07/05 01:49:10;;;;;;;23.67;12.80;;;;;;;15.92;100.00;96333.03;2049288;29;20073;-65
2022/07/05 01:50:12;;;;;;;17.48;13.55;;;;;;;15.92;100.00;96333.03;2048400;29;20066;-66
2022/07/05 01:51:18;;;;;;;19.55;13.40;;;;;;;15.94;100.00;96335.56;2040737;29;20062;-65
2022/07/05 01:52:21;;;;;;;23.55;13.68;;;;;;;15.93;100.00;96333.88;2033211;29;20060;-65
2022/07/05 01:53:23;;;;;;;28.50;15.02;;;;;;;15.93;100.00;96337.34;2033534;29;20059;-65
2022/07/05 01:54:25;;;;;;;21.85;14.75;;;;;;;15.92;100.00;96337.44;2025870;29;20061;-64
2022/07/05 01:55:26;;;;;;;22.42;14.52;;;;;;;15.90;100.00;96334.91;2025843;29;20055;-63
2022/07/05 01:56:28;;;;;;;20.73;14.30;;;;;;;15.89;100.00;96328.00;2033126;29;20048;-65
2022/07/05 01:57:31;;;;;;;17.48;12.63;;;;;;;15.94;100.00;96335.56;2033212;29;20047;-64
2022/07/05 01:58:32;;;;;;;22.10;15.10;;;;;;;15.92;100.00;96327.78;2017791;29;20059;-65
2022/07/05 01:59:34;;;;;;;21.48;14.63;;;;;;;15.94;100.00;96333.78;2025846;29;20622;-64
2022/07/05 02:00:42;;;;;;;24.67;15.88;;;;;;;15.92;100.00;96333.03;2025829;29;20060;-65
2022/07/05 02:01:44;;;;;;;21.73;15.05;;;;;;;15.93;100.00;96328.63;2019997;29;20199;-67
2022/07/05 02:02:45;;;;;;;24.70;14.85;;;;;;;15.90;100.00;96337.53;2025504;29;20482;-65
2022/07/05 02:03:46;;;;;;;27.08;15.45;;;;;;;15.92;100.00;96334.81;2018096;29;20059;-65
2022/07/05 02:04:47;;;;;;;26.55;15.43;;;;;;;15.92;100.00;96334.81;2025535;29;20538;-65
2022/07/05 02:05:50;;;;;;;20.77;14.65;;;;;;;15.94;100.00;96340.81;2017841;29;20052;-65
2022/07/05 02:06:54;;;;;;;23.20;13.75;;;;;;;15.95;100.00;96340.69;2018986;29;20056;-65
2022/07/05 02:07:55;;;;;;;24.27;14.32;;;;;;;15.97;100.00;96341.44;2018093;29;20053;-65
2022/07/05 02:08:57;;;;;;;20.05;14.13;;;;;;;15.95;100.00;96338.06;2010036;29;20420;-65
2022/07/05 02:09:58;;;;;;;23.35;14.43;;;;;;;15.83;100.00;96325.78;2025860;29;20420;-65
2022/07/05 02:11:00;;;;;;;17.38;13.23;;;;;;;15.95;100.00;96340.69;2025341;29;20424;-66
2022/07/05 02:12:02;;;;;;;23.77;14.35;;;;;;;15.96;100.00;96342.41;2018360;29;20069;-64
2022/07/05 02:13:04;;;;;;;20.50;13.18;;;;;;;15.93;100.00;96347.84;2018259;29;20096;-65
2022/07/05 02:14:05;;;;;;;19.77;13.20;;;;;;;15.95;100.00;96345.09;2022751;29;20041;-65
2022/07/05 02:15:10;;;;;;;18.38;13.38;;;;;;;15.94;100.00;96343.44;2034590;29;20063;-65
2022/07/05 02:16:12;;;;;;;17.65;13.65;;;;;;;15.93;100.00;96344.34;2040460;29;20047;-64
2022/07/05 02:17:13;;;;;;;21.02;14.10;;;;;;;15.92;100.00;96340.06;2033920;29;20044;-64
2022/07/05 02:18:15;;;;;;;18.80;13.40;;;;;;;15.90;100.00;96348.00;2025557;29;20048;-64
2022/07/05 02:19:18;;;;;;;24.98;15.07;;;;;;;15.88;100.00;96344.66;2025739;29;20095;-64
2022/07/05 02:20:20;;;;;;;18.95;14.07;;;;;;;15.88;100.00;96342.88;2025481;29;20052;-64
2022/07/05 02:21:21;;;;;;;19.77;13.38;;;;;;;15.86;100.00;96347.34;2017487;29;20045;-65
2022/07/05 02:22:24;;;;;;;18.55;14.35;;;;;;;15.86;100.00;96346.53;2026502;29;20052;-65
2022/07/05 02:23:25;;;;;;;21.77;14.27;;;;;;;15.85;100.00;96348.31;2025740;29;20438;-64
2022/07/05 02:24:27;;;;;;;22.67;14.82;;;;;;;15.81;100.00;96352.03;2018295;29;20056;-65
2022/07/05 02:25:36;;;;;;;18.13;13.27;;;;;;;15.79;100.00;96348.66;2026537;29;20052;-63
2022/07/05 02:26:42;;;;;;;23.75;14.27;;;;;;;15.74;100.00;96352.50;2019739;29;20434;-64
2022/07/05 02:27:44;;;;;;;22.63;15.32;;;;;;;15.71;100.00;96350.09;2018661;29;20547;-65
2022/07/05 02:28:45;;;;;;;20.00;14.25;;;;;;;15.70;100.00;96351.03;2025701;29;20052;-65
2022/07/05 02:29:48;;;;;;;16.75;12.32;;;;;;;15.59;100.00;96351.66;2025775;29;20049;-65
2022/07/05 02:30:51;;;;;;;23.02;15.35;;;;;;;15.62;100.00;96344.47;2025840;29;20096;-65
2022/07/05 02:31:53;;;;;;;20.77;16.25;;;;;;;15.62;100.00;96346.25;2017582;29;20040;-65
2022/07/05 02:32:54;;;;;;;20.20;15.23;;;;;;;15.59;100.00;96344.66;2018388;29;20056;-64
2022/07/05 02:33:56;;;;;;;17.38;14.50;;;;;;;15.61;100.00;96345.41;2025350;29;20467;-64
2022/07/05 02:34:59;;;;;;;18.52;13.40;;;;;;;15.60;100.00;96350.72;2033440;29;20055;-64
2022/07/05 02:36:08;;;;;;;17.65;11.35;;;;;;;15.66;100.00;96352.94;2025607;29;20052;-64
2022/07/05 02:37:10;;;;;;;18.92;12.65;;;;;;;15.67;100.00;96352.03;2027736;29;20056;-64
2022/07/05 02:38:11;;;;;;;21.45;14.90;;;;;;;15.65;100.00;96341.66;2032978;29;20557;-64
2022/07/05 02:39:12;;;;;;;15.45;12.38;;;;;;;15.69;100.00;96346.72;2025109;29;20521;-65
2022/07/05 02:40:14;;;;;;;24.60;15.07;;;;;;;15.68;100.00;96350.25;2017507;29;20052;-64
2022/07/05 02:41:19;;;;;;;20.65;13.38;;;;;;;15.67;100.00;96354.66;2024737;29;20546;-66
2022/07/05 02:42:24;;;;;;;18.08;12.82;;;;;;;15.66;100.00;96345.97;2019695;29;20053;-65
2022/07/05 02:43:25;;;;;;;20.23;14.45;;;;;;;15.70;100.00;96351.88;2033050;29;20059;-64
2022/07/05 02:44:26;;;;;;;20.10;13.23;;;;;;;15.70;100.00;96349.25;2025123;29;20040;-64
2022/07/05 02:45:28;;;;;;;18.00;13.68;;;;;;;15.75;100.00;96352.44;2033173;29;20044;-64
2022/07/05 02:46:33;;;;;;;21.85;14.02;;;;;;;15.77;100.00;96347.94;2025731;29;20551;-65
2022/07/05 02:47:37;;;;;;;19.60;14.27;;;;;;;15.76;100.00;96350.66;2019085;29;20053;-62
2022/07/05 02:48:38;;;;;;;20.33;14.40;;;;;;;15.80;100.00;96350.38;2025649;29;20442;-63
2022/07/05 02:49:41;;;;;;;19.42;15.55;;;;;;;15.81;100.00;96356.44;2025405;29;20067;-65
2022/07/05 02:50:43;;;;;;;20.55;15.52;;;;;;;15.80;100.00;96349.53;2017805;29;20055;-64
2022/07/05 02:51:45;;;;;;;18.70;13.63;;;;;;;15.86;100.00;96357.00;2018069;29;20052;-64
2022/07/05 02:52:47;;;;;;;21.55;14.48;;;;;;;15.86;100.00;96357.84;2025805;29;20056;-63
2022/07/05 02:53:50;;;;;;;23.80;14.18;;;;;;;15.85;100.00;96358.78;2041384;29;20051;-65
2022/07/05 02:54:52;;;;;;;16.88;12.27;;;;;;;15.83;100.00;96355.41;2032979;29;20056;-65
2022/07/05 02:55:54;;;;;;;17.95;12.10;;;;;;;15.87;100.00;96361.28;2033482;29;20052;-65
2022/07/05 02:56:56;;;;;;;19.13;12.93;;;;;;;15.85;100.00;96364.03;2040892;29;20078;-65
2022/07/05 02:57:59;;;;;;;23.33;13.88;;;;;;;15.83;100.00;96359.81;2042706;23;20035;-60
2022/07/05 02:59:05;;;;;;;19.02;14.05;;;;;;;15.80;100.00;96362.63;2033086;29;20059;-62
2022/07/05 03:00:09;;;;;;;16.98;13.73;;;;;;;15.81;100.00;96361.69;2049578;28;20058;-62
2022/07/05 03:01:15;;;;;;;15.82;11.55;;;;;;;15.82;100.00;96358.97;2050008;28;20055;-61
2022/07/05 03:02:17;;;;;;;15.90;13.15;;;;;;;15.82;100.00;96364.22;2048853;28;20046;-62
2022/07/05 03:03:18;;;;;;;21.75;14.32;;;;;;;15.84;100.00;96361.50;2041027;29;20063;-63
2022/07/05 03:04:19;;;;;;;17.58;12.52;;;;;;;15.81;100.00;96361.69;2040503;28;20067;-61
2022/07/05 03:05:28;;;;;;;22.27;14.32;;;;;;;15.82;100.00;96366.84;2049730;28;20043;-61
2022/07/05 03:06:34;;;;;;;19.50;13.88;;;;;;;15.81;100.00;96359.06;2037062;29;20052;-61
2022/07/05 03:07:35;;;;;;;16.73;14.00;;;;;;;15.81;100.00;96359.06;2042405;28;20047;-61
2022/07/05 03:08:37;;;;;;;20.90;14.25;;;;;;;15.77;100.00;96363.66;2048523;28;20046;-60
2022/07/05 03:09:39;;;;;;;16.90;14.15;;;;;;;15.76;100.00;96363.75;2042444;29;20066;-60
2022/07/05 03:10:41;;;;;;;17.50;12.82;;;;;;;15.77;100.00;96360.19;2050473;28;20058;-60
2022/07/05 03:11:42;;;;;;;19.23;14.13;;;;;;;15.76;100.00;96361.13;2042197;29;20051;-61
2022/07/05 03:12:44;;;;;;;24.40;14.80;;;;;;;15.77;100.00;96365.41;2034324;28;20434;-61
2022/07/05 03:13:47;;;;;;;18.15;13.38;;;;;;;15.75;100.00;96357.66;2042694;29;20062;-60
2022/07/05 03:14:49;;;;;;;22.33;14.38;;;;;;;15.75;100.00;96364.69;2042269;28;20062;-60
2022/07/05 03:15:52;;;;;;;20.83;15.10;;;;;;;15.74;100.00;96365.59;2034883;29;20441;-60
2022/07/05 03:16:56;;;;;;;21.42;14.30;;;;;;;15.76;100.00;96363.75;2042767;28;20055;-60
2022/07/05 03:17:58;;;;;;;22.85;15.10;;;;;;;15.74;100.00;96358.59;2041515;29;20048;-60
2022/07/05 03:19:02;;;;;;;22.45;15.20;;;;;;;15.72;100.00;96360.47;2034927;29;20560;-60
2022/07/05 03:20:04;;;;;;;21.23;13.75;;;;;;;15.70;100.00;96366.75;2042540;28;20051;-60
2022/07/05 03:21:06;;;;;;;18.80;13.50;;;;;;;15.66;100.00;96355.56;2057159;28;20046;-61
2022/07/05 03:22:09;;;;;;;21.23;13.65;;;;;;;15.66;100.00;96359.06;2049290;29;20047;-60
2022/07/05 03:23:12;;;;;;;18.25;12.70;;;;;;;15.65;100.00;96364.38;2042662;29;20059;-61
2022/07/05 03:24:19;;;;;;;18.73;13.20;;;;;;;15.64;100.00;96365.31;2043339;28;20055;-61
2022/07/05 03:25:20;;;;;;;20.92;13.73;;;;;;;15.64;100.00;96355.69;2041897;29;20043;-60
2022/07/05 03:26:22;;;;;;;23.42;15.23;;;;;;;15.61;100.00;96363.72;2049788;28;20445;-61
2022/07/05 03:27:24;;;;;;;22.25;16.52;;;;;;;15.58;100.00;96360.44;2041967;29;20047;-61
2022/07/05 03:28:28;;;;;;;25.38;17.50;;;;;;;15.57;100.00;96362.22;2042276;28;20050;-60
2022/07/05 03:29:32;;;;;;;22.95;17.40;;;;;;;15.53;100.00;96363.38;2050157;28;20047;-60
2022/07/05 03:30:34;;;;;;;32.17;17.25;;;;;;;15.49;100.00;96361.84;2042466;29;20035;-61
2022/07/05 03:31:35;;;;;;;20.60;15.50;;;;;;;15.48;100.00;96365.41;2042136;28;20055;-60
2022/07/05 03:32:39;;;;;;;28.80;19.02;;;;;;;15.44;100.00;96363.91;2049689;29;20043;-60
2022/07/05 03:33:41;;;;;;;18.40;15.10;;;;;;;15.42;100.00;96364.00;2041771;28;20043;-60
2022/07/05 03:34:45;;;;;;;26.90;17.75;;;;;;;15.41;100.00;96367.53;2035621;29;20051;-60
2022/07/05 03:35:46;;;;;;;28.98;17.42;;;;;;;15.41;100.00;96364.94;2042186;29;20095;-61
2022/07/05 03:36:50;;;;;;;29.27;18.55;;;;;;;15.38;100.00;96365.13;2042249;28;20051;-61
2022/07/05 03:37:53;;;;;;;25.95;14.93;;;;;;;15.36;100.00;96361.75;2042225;28;20063;-60
2022/07/05 03:38:56;;;;;;;21.73;14.75;;;;;;;15.35;100.00;96365.31;2041019;29;20043;-61
2022/07/05 03:39:57;;;;;;;22.00;16.35;;;;;;;15.34;100.00;96363.63;2042345;28;20059;-60
2022/07/05 03:40:59;;;;;;;25.20;17.10;;;;;;;15.37;100.00;96360.84;2041499;29;20059;-61
2022/07/05 03:42:02;;;;;;;26.13;17.98;;;;;;;15.33;100.00;96356.69;2033910;29;20554;-60
2022/07/05 03:43:06;;;;;;;25.55;17.48;;;;;;;15.35;100.00;96364.47;2043171;28;20541;-60
2022/07/05 03:44:10;;;;;;;25.05;17.25;;;;;;;15.34;100.00;96361.03;2057369;28;20046;-60
2022/07/05 03:45:12;;;;;;;24.67;17.35;;;;;;;15.31;100.00;96360.34;2049326;29;20047;-61
2022/07/05 03:46:14;;;;;;;24.23;15.95;;;;;;;15.32;100.00;96359.44;2041091;29;20055;-60
2022/07/05 03:47:17;;;;;;;21.73;15.32;;;;;;;15.30;100.00;96358.69;2041218;29;20568;-60
2022/07/05 03:48:20;;;;;;;25.98;17.83;;;;;;;15.31;100.00;96361.19;2041507;29;20052;-60
2022/07/05 03:49:22;;;;;;;26.63;17.77;;;;;;;15.29;100.00;96367.44;2042200;28;20526;-61
2022/07/05 03:50:25;;;;;;;26.50;18.90;;;;;;;15.29;100.00;96370.91;2042002;29;20529;-61
2022/07/05 03:51:26;;;;;;;24.98;16.30;;;;;;;15.35;100.00;96377.56;2034573;29;20058;-60
2022/07/05 03:52:29;;;;;;;22.90;16.98;;;;;;;15.34;100.00;96376.72;2042013;28;20039;-60
2022/07/05 03:53:33;;;;;;;24.10;16.63;;;;;;;15.36;100.00;96380.06;2041801;29;20051;-60
2022/07/05 03:54:36;;;;;;;24.73;17.60;;;;;;;15.38;100.00;96382.59;2042072;28;20395;-60
2022/07/05 03:55:40;;;;;;;27.08;17.85;;;;;;;15.35;100.00;96369.72;2041765;29;20047;-60
2022/07/05 03:56:41;;;;;;;25.52;19.00;;;;;;;15.36;100.00;96380.06;2041554;29;20048;-61
2022/07/05 03:57:47;;;;;;;21.75;15.40;;;;;;;15.39;100.00;96374.63;2049794;28;20067;-60
2022/07/05 03:58:49;;;;;;;27.38;17.40;;;;;;;15.37;100.00;96380.91;2065027;28;20054;-60
2022/07/05 03:59:51;;;;;;;26.02;18.08;;;;;;;15.37;100.00;96380.91;2049293;29;20643;-61
2022/07/05 04:00:53;;;;;;;24.42;15.85;;;;;;;15.36;100.00;96380.06;2049311;28;20050;-60
2022/07/05 04:01:58;;;;;;;29.85;16.90;;;;;;;15.34;100.00;96373.25;2049180;29;20066;-59
2022/07/05 04:03:00;;;;;;;31.30;18.35;;;;;;;15.35;100.00;96380.16;2034291;29;20702;-60
2022/07/05 04:04:01;;;;;;;28.08;16.52;;;;;;;15.33;100.00;96379.41;2041396;28;20055;-60
2022/07/05 04:05:05;;;;;;;24.40;15.80;;;;;;;15.34;100.00;96368.00;2049793;28;20054;-60
2022/07/05 04:06:08;;;;;;;24.90;16.23;;;;;;;15.36;100.00;96374.00;2040939;29;20040;-61
2022/07/05 04:07:09;;;;;;;26.85;15.90;;;;;;;15.36;100.00;96371.38;2034331;28;20383;-61
2022/07/05 04:08:12;;;;;;;28.08;17.63;;;;;;;15.33;100.00;96375.03;2049085;28;20047;-60
2022/07/05 04:09:18;;;;;;;25.35;13.82;;;;;;;15.29;100.00;96376.16;2056516;28;20051;-61
2022/07/05 04:10:19;;;;;;;23.95;17.02;;;;;;;15.31;100.00;96374.25;2049266;29;20043;-60
2022/07/05 04:11:21;;;;;;;26.45;16.75;;;;;;;15.30;100.00;96377.81;2041763;28;20044;-60
2022/07/05 04:12:25;;;;;;;29.88;17.98;;;;;;;15.29;100.00;96383.13;2057299;28;20046;-61
2022/07/05 04:13:27;;;;;;;33.50;20.45;;;;;;;15.26;100.00;96381.53;2048957;29;20047;-60
2022/07/05 04:14:32;;;;;;;33.53;17.63;;;;;;;15.31;100.00;96386.50;2049096;29;20051;-60
2022/07/05 04:15:33;;;;;;;28.35;16.25;;;;;;;15.35;100.00;96382.78;2049045;29;20047;-61
2022/07/05 04:16:37;;;;;;;25.27;16.02;;;;;;;15.36;100.00;96385.28;2042092;29;20406;-60
2022/07/05 04:17:54;;;;;;;27.33;17.00;;;;;;;15.34;100.00;96381.09;2049070;28;20050;-60
2022/07/05 04:18:57;;;;;;;;;;;;;;;15.36;100.00;96381.84;2046730;29;20062;-61
2022/07/05 04:19:59;;;;;;;23.38;16.08;;;;;;;15.37;100.00;96384.38;2033176;29;20384;-61
2022/07/05 04:21:03;;;;;;;25.73;16.52;;;;;;;15.36;100.00;96385.28;2041000;28;20052;-60
2022/07/05 04:22:04;;;;;;;23.85;16.60;;;;;;;15.41;100.00;96380.63;2056470;28;20059;-60
2022/07/05 04:23:06;;;;;;;24.55;17.27;;;;;;;15.41;100.00;96387.66;2049333;28;20043;-64
2022/07/05 04:24:07;;;;;;;26.20;18.05;;;;;;;15.36;100.00;96387.91;2033914;29;20052;-61
2022/07/05 04:25:17;;;;;;;26.90;17.88;;;;;;;15.39;100.00;96392.97;2042367;28;20052;-60
2022/07/05 04:26:19;;;;;;;24.70;16.13;;;;;;;15.36;100.00;96387.91;2049834;28;20054;-60
2022/07/05 04:27:21;;;;;;;22.52;16.55;;;;;;;15.35;100.00;96390.63;2049462;28;20077;-60
2022/07/05 04:28:22;;;;;;;28.05;15.32;;;;;;;15.37;100.00;96392.22;2048689;29;20457;-60
2022/07/05 04:29:27;;;;;;;30.35;17.30;;;;;;;15.39;100.00;96389.50;2033867;29;20051;-60
2022/07/05 04:30:28;;;;;;;31.15;16.67;;;;;;;15.39;100.00;96392.97;2033563;29;20080;-60
2022/07/05 04:31:31;;;;;;;25.80;16.58;;;;;;;15.39;100.00;96386.88;2048596;29;20047;-60
2022/07/05 04:32:33;;;;;;;22.38;16.55;;;;;;;15.43;100.00;96384.00;2041025;29;20032;-61
2022/07/05 04:33:35;;;;;;;24.08;16.50;;;;;;;15.40;100.00;96393.81;2040908;29;20058;-60
2022/07/05 04:34:36;;;;;;;21.38;15.32;;;;;;;15.40;100.00;96386.81;2049421;28;20698;-60
2022/07/05 04:35:38;;;;;;;24.42;15.63;;;;;;;15.44;100.00;96387.47;2048480;29;20098;-59
2022/07/05 04:36:40;;;;;;;21.10;16.42;;;;;;;15.48;100.00;96388.97;2041051;29;20063;-60
2022/07/05 04:37:42;;;;;;;21.30;15.52;;;;;;;15.48;100.00;96396.81;2040581;29;20039;-60
2022/07/05 04:38:44;;;;;;;17.42;14.68;;;;;;;15.47;100.00;96392.50;2040903;29;20059;-58
2022/07/05 04:39:45;;;;;;;23.83;14.50;;;;;;;15.52;100.00;96394.84;2048763;28;20502;-61
2022/07/05 04:40:46;;;;;;;23.25;15.07;;;;;;;15.50;100.00;96397.53;2056654;28;20051;-60
2022/07/05 04:41:48;;;;;;;26.30;15.48;;;;;;;15.50;100.00;96396.72;2048492;29;20055;-60
2022/07/05 04:42:50;;;;;;;19.83;14.75;;;;;;;15.54;100.00;96391.22;2041030;29;20434;-60
2022/07/05 04:43:52;;;;;;;18.67;14.60;;;;;;;15.54;100.00;96393.81;2024446;29;20056;-60
2022/07/05 04:44:53;;;;;;;20.00;13.05;;;;;;;15.57;100.00;96390.19;2034805;28;20056;-60